Time;durP1;ratioP1;P1;durP2;ratioP2;P2;SDS_P1;SDS_P2;PMS_P1;PMS_P2;Temp;Humidity;BMP_temperature;BMP_pressure;BME280_temperature;BME280_humidity;BME280_pressure;Samples;Min_cycle;Max_cycle;Signal;HPM_P1;HPM_P2
2022/09/17 00:02:21;;;;;;;;;;;;;;;9.91;88.02;96142.53;5076589;28;19965;-78
2022/09/17 00:04:48;;;;;;;;;;;;;;;9.90;88.33;96136.50;5076456;28;20422;-78
2022/09/17 00:07:14;;;;;;;;;;;;;;;9.90;88.47;96141.75;5076207;28;19955;-78
2022/09/17 00:09:40;;;;;;;;;;;;;;;9.89;87.95;96144.56;5076611;28;20408;-78
2022/09/17 00:12:06;;;;;;;;;;;;;;;9.89;88.57;96144.56;5076285;28;19999;-78
2022/09/17 00:14:32;;;;;;;;;;;;;;;9.87;89.10;96144.00;5075985;28;20064;-78
2022/09/17 00:16:58;;;;;;;;;;;;;;;9.86;89.81;96148.44;5058015;28;20093;-78
2022/09/17 00:19:24;;;;;;;;;;;;;;;9.86;89.33;96143.19;5076034;28;20040;-78
2022/09/17 00:21:50;;;;;;;;;;;;;;;9.85;89.44;96152.09;5076123;28;19966;-78
2022/09/17 00:24:16;;;;;;;;;;;;;;;9.86;89.84;96152.88;5076389;28;19959;-78
2022/09/17 00:26:43;;;;;;;;;;;;;;;9.86;89.86;96156.28;5076131;28;19961;-78
2022/09/17 00:29:09;;;;;;;;;;;;;;;9.88;89.60;96158.72;5075824;28;19958;-78
2022/09/17 00:31:35;;;;;;;;;;;;;;;9.88;90.09;96156.88;5075808;28;19959;-78
2022/09/17 00:34:02;;;;;;;;;;;;;;;9.86;89.17;96152.88;5076584;28;19977;-78
2022/09/17 00:36:28;;;;;;;;;;;;;;;9.88;90.02;96161.31;5074768;28;20410;-78
2022/09/17 00:38:56;;;;;;;;;;;;;;;9.88;89.93;96156.88;5075741;28;19989;-78
2022/09/17 00:41:22;;;;;;;;;;;;;;;9.90;89.62;96154.06;5076207;28;19954;-78
2022/09/17 00:43:59;;;;;;;;;;;;;;;9.91;89.98;96160.88;5075948;28;19968;-78
2022/09/17 00:46:39;;;;;;;;;;;;;;;9.92;89.94;96158.03;5075464;28;20350;-78
2022/09/17 00:49:09;;;;;;;;;;;;;;;9.94;89.48;96155.22;5075490;28;19964;-78
2022/09/17 00:51:37;;;;;;;;;;;;;;;9.95;89.27;96143.69;5075462;28;20424;-78
2022/09/17 00:54:05;;;;;;;;;;;;;;;9.95;89.33;96144.53;5057681;28;19975;-78
2022/09/17 00:56:32;;;;;;;;;;;;;;;9.95;89.34;96147.13;5041268;28;19958;-78
2022/09/17 00:58:59;;;;;;;;;;;;;;;9.94;88.83;96142.91;5075411;28;19959;-79
2022/09/17 01:01:25;;;;;;;;;;;;;;;9.92;88.75;96142.31;5065826;28;19964;-78
2022/09/17 01:03:51;;;;;;;;;;;;;;;9.91;89.48;96161.69;5074725;28;20046;-78
2022/09/17 01:06:36;;;;;;;;;;;;;;;9.90;89.61;96159.28;5075131;28;20340;-79
2022/09/17 01:09:24;;;;;;;;;;;;;;;9.90;89.36;96159.28;5075717;28;19959;-79
2022/09/17 01:11:50;;;;;;;;;;;;;;;9.90;89.51;96165.31;5075340;28;19954;-78
2022/09/17 01:14:26;;;;;;;;;;;;;;;9.89;89.78;96168.16;5074582;28;19969;-78
2022/09/17 01:17:11;;;;;;;;;;;;;;;9.88;90.23;96167.34;5057214;28;20000;-78
2022/09/17 01:19:49;;;;;;;;;;;;;;;9.87;89.69;96168.38;5074963;28;19951;-78
2022/09/17 01:22:26;;;;;;;;;;;;;;;9.84;88.90;96163.56;5075579;28;19966;-78
2022/09/17 01:25:10;;;;;;;;;;;;;;;9.77;88.24;96172.53;5075156;28;20321;-78
2022/09/17 01:27:52;;;;;;;;;;;;;;;9.76;90.35;96166.50;5075171;28;20353;-79
2022/09/17 01:30:37;;;;;;;;;;;;;;;9.78;90.03;96172.31;5064581;28;19966;-78
2022/09/17 01:33:14;;;;;;;;;;;;;;;9.79;90.10;96173.91;5068107;28;19962;-79
2022/09/17 01:36:00;;;;;;;;;;;;;;;9.81;90.20;96173.72;5074544;28;19973;-79
2022/09/17 01:38:33;;;;;;;;;;;;;;;9.83;90.71;96176.91;5049377;28;20329;-78
2022/09/17 01:41:22;;;;;;;;;;;;;;;9.82;90.34;96176.09;5074858;28;19955;-78
2022/09/17 01:43:55;;;;;;;;;;;;;;;9.82;90.78;96173.47;5064197;28;20320;-79
2022/09/17 01:46:25;;;;;;;;;;;;;;;9.82;91.19;96167.44;5074538;28;19964;-79
2022/09/17 01:48:55;;;;;;;;;;;;;;;9.81;91.38;96173.72;5056558;28;20307;-79
2022/09/17 01:51:23;;;;;;;;;;;;;;;9.82;90.86;96172.69;5074556;28;19960;-78
2022/09/17 01:53:56;;;;;;;;;;;;;;;9.81;91.35;96173.72;5074429;28;20432;-79
2022/09/17 01:56:26;;;;;;;;;;;;;;;9.81;91.13;96168.47;5074902;28;19960;-79
2022/09/17 01:59:01;;;;;;;;;;;;;;;9.80;91.50;96179.94;5056381;28;19954;-79
2022/09/17 02:01:30;;;;;;;;;;;;;;;9.81;90.84;96173.72;5074112;28;20180;-78
2022/09/17 02:04:02;;;;;;;;;;;;;;;9.82;91.20;96177.91;5056281;28;19955;-78
2022/09/17 02:06:29;;;;;;;;;;;;;;;9.81;92.00;96171.88;5074077;28;19961;-78
2022/09/17 02:08:58;;;;;;;;;;;;;;;9.82;91.57;96167.44;5074146;28;19961;-77
2022/09/17 02:11:25;;;;;;;;;;;;;;;9.80;91.83;96170.28;5074334;28;19955;-77
2022/09/17 02:13:57;;;;;;;;;;;;;;;9.79;91.12;96173.13;5073925;28;19966;-77
2022/09/17 02:16:27;;;;;;;;;;;;;;;9.78;90.88;96172.31;5074088;28;19967;-77
2022/09/17 02:19:12;;;;;;;;;;;;;;;9.75;90.48;96170.13;5056146;28;20442;-78
2022/09/17 02:21:44;;;;;;;;;;;;;;;9.67;90.13;96178.28;5073756;28;19960;-76
2022/09/17 02:24:16;;;;;;;;;;;;;;;9.61;89.53;96176.53;5073937;28;19981;-75
2022/09/17 02:26:47;;;;;;;;;;;;;;;9.57;90.77;96185.84;5073843;28;19956;-75
2022/09/17 02:29:18;;;;;;;;;;;;;;;9.49;91.31;96187.75;5073597;28;19960;-74
2022/09/17 02:31:44;;;;;;;;;;;;;;;9.44;92.92;96190.19;5073869;28;19960;-74
2022/09/17 02:34:10;;;;;;;;;;;;;;;9.40;94.05;96196.88;5055735;28;19973;-74
2022/09/17 02:36:36;;;;;;;;;;;;;;;9.31;91.95;96182.47;5073512;28;19959;-74
2022/09/17 02:39:02;;;;;;;;;;;;;;;9.24;94.57;96186.94;5073900;28;20459;-75
2022/09/17 02:41:35;;;;;;;;;;;;;;;9.13;93.31;96186.66;5055712;28;19965;-76
2022/09/17 02:44:12;;;;;;;;;;;;;;;9.08;93.85;96188.31;5074229;28;20443;-76
2022/09/17 02:46:56;;;;;;;;;;;;;;;9.11;95.18;96187.88;5073482;28;19969;-76
2022/09/17 02:49:34;;;;;;;;;;;;;;;9.16;95.37;96180.19;5073877;28;19958;-76
2022/09/17 02:52:03;;;;;;;;;;;;;;;9.23;94.74;96180.13;5073658;28;19986;-77
2022/09/17 02:54:49;;;;;;;;;;;;;;;9.26;95.74;96180.50;5073606;28;19968;-76
2022/09/17 02:57:39;;;;;;;;;;;;;;;9.27;95.52;96176.88;5072857;28;19961;-76
2022/09/17 03:00:11;;;;;;;;;;;;;;;9.29;94.73;96168.81;5058485;28;19958;-76
2022/09/17 03:02:40;;;;;;;;;;;;;;;9.31;95.58;96166.78;5062364;28;19948;-77
2022/09/17 03:05:07;;;;;;;;;;;;;;;9.32;95.44;96170.97;5077333;28;19962;-77
2022/09/17 03:07:33;;;;;;;;;;;;;;;9.35;95.26;96176.59;5077652;28;19959;-76
2022/09/17 03:09:59;;;;;;;;;;;;;;;9.37;94.85;96181.63;5077900;28;19962;-77
2022/09/17 03:12:26;;;;;;;;;;;;;;;9.39;94.71;96179.59;5077266;28;20438;-77
2022/09/17 03:14:52;;;;;;;;;;;;;;;9.39;94.30;96171.72;5077720;28;19957;-77
2022/09/17 03:17:18;;;;;;;;;;;;;;;9.39;94.16;96163.09;5077401;28;20067;-77
2022/09/17 03:19:44;;;;;;;;;;;;;;;9.38;93.55;96157.03;5077861;28;19971;-77
2022/09/17 03:22:09;;;;;;;;;;;;;;;9.37;94.20;96160.69;5077124;28;19962;-77
2022/09/17 03:24:35;;;;;;;;;;;;;;;9.37;94.75;96165.13;5077430;28;20062;-77
2022/09/17 03:27:01;;;;;;;;;;;;;;;9.37;94.91;96176.38;5077190;28;19969;-77
2022/09/17 03:29:27;;;;;;;;;;;;;;;9.37;94.27;96170.34;5077268;28;20006;-77
2022/09/17 03:31:53;;;;;;;;;;;;;;;9.35;94.61;96166.13;5077106;28;20053;-77
2022/09/17 03:34:20;;;;;;;;;;;;;;;9.36;94.84;96174.75;5076975;28;20373;-77
2022/09/17 03:36:46;;;;;;;;;;;;;;;9.35;94.77;96173.19;5076812;28;19964;-77
2022/09/17 03:39:12;;;;;;;;;;;;;;;9.35;94.51;96175.78;5077045;28;19961;-78
2022/09/17 03:41:38;;;;;;;;;;;;;;;9.34;93.96;96177.63;5076999;28;19970;-77
2022/09/17 03:44:04;;;;;;;;;;;;;;;9.31;93.40;96179.84;5076613;28;19973;-78
2022/09/17 03:46:30;;;;;;;;;;;;;;;9.28;93.40;96182.91;5058970;28;19964;-77
2022/09/17 03:48:56;;;;;;;;;;;;;;;9.26;93.96;96184.91;5076586;28;19967;-78
2022/09/17 03:51:22;;;;;;;;;;;;;;;9.25;93.71;96185.94;5058981;28;20402;-78
2022/09/17 03:53:48;;;;;;;;;;;;;;;9.24;93.76;96184.34;5076506;28;19956;-77
2022/09/17 03:56:13;;;;;;;;;;;;;;;9.24;93.37;96181.72;5076753;28;19961;-77
2022/09/17 03:58:39;;;;;;;;;;;;;;;9.21;93.42;96188.19;5076848;28;19954;-78
2022/09/17 04:01:05;;;;;;;;;;;;;;;9.20;93.02;96184.00;5076550;28;20424;-77
2022/09/17 04:03:31;;;;;;;;;;;;;;;9.18;93.34;96190.47;5058506;28;20020;-78
2022/09/17 04:05:57;;;;;;;;;;;;;;;9.17;93.03;96191.47;5076825;28;19965;-78
2022/09/17 04:08:23;;;;;;;;;;;;;;;9.14;93.20;96201.34;5076691;28;19965;-78
2022/09/17 04:10:50;;;;;;;;;;;;;;;9.13;93.40;96197.13;5076164;28;20019;-78
2022/09/17 04:13:17;;;;;;;;;;;;;;;9.13;93.79;96201.53;5063720;28;19960;-78
2022/09/17 04:15:43;;;;;;;;;;;;;;;9.14;94.23;96200.53;5076258;28;19957;-78
2022/09/17 04:18:09;;;;;;;;;;;;;;;9.13;94.33;96193.69;5076390;28;19986;-78
2022/09/17 04:20:35;;;;;;;;;;;;;;;9.13;94.87;96202.38;5076876;28;19954;-78
2022/09/17 04:23:01;;;;;;;;;;;;;;;9.10;93.55;96196.75;5076249;28;19963;-78
2022/09/17 04:25:27;;;;;;;;;;;;;;;9.05;93.88;96197.41;5075560;28;20054;-78
2022/09/17 04:27:53;;;;;;;;;;;;;;;9.03;93.35;96194.19;5075953;28;19994;-78
2022/09/17 04:30:19;;;;;;;;;;;;;;;8.97;94.21;96196.88;5075824;28;19963;-78
2022/09/17 04:32:45;;;;;;;;;;;;;;;8.91;93.53;96194.06;5076180;28;20035;-78
2022/09/17 04:35:12;;;;;;;;;;;;;;;8.88;94.08;96198.94;5075760;28;19950;-78
2022/09/17 04:37:38;;;;;;;;;;;;;;;8.85;94.46;96196.75;5075842;28;19947;-78
2022/09/17 04:40:04;;;;;;;;;;;;;;;8.84;93.81;96206.41;5075818;28;20384;-78
2022/09/17 04:42:30;;;;;;;;;;;;;;;8.83;93.56;96206.63;5075586;28;19964;-78
2022/09/17 04:44:56;;;;;;;;;;;;;;;8.83;93.74;96211.84;5075946;28;19965;-78
2022/09/17 04:47:23;;;;;;;;;;;;;;;8.82;93.93;96200.59;5076037;28;20308;-78
2022/09/17 04:49:49;;;;;;;;;;;;;;;8.83;93.40;96201.38;5075628;28;19968;-78
2022/09/17 04:52:15;;;;;;;;;;;;;;;8.81;93.45;96208.66;5040961;28;19959;-78
2022/09/17 04:54:41;;;;;;;;;;;;;;;8.79;93.46;96214.06;5074850;28;20313;-78
2022/09/17 04:57:07;;;;;;;;;;;;;;;8.76;93.10;96205.84;5075369;28;20373;-78
2022/09/17 04:59:33;;;;;;;;;;;;;;;8.74;93.21;96203.47;5075311;28;19956;-78
2022/09/17 05:01:59;;;;;;;;;;;;;;;8.71;92.93;96212.53;5075656;28;19961;-78
2022/09/17 05:04:24;;;;;;;;;;;;;;;8.66;92.95;96222.81;5075146;28;19991;-78
2022/09/17 05:06:50;;;;;;;;;;;;;;;8.62;92.83;96224.25;5075848;28;20002;-78
2022/09/17 05:09:16;;;;;;;;;;;;;;;8.61;93.20;96221.84;5075161;28;19956;-78
2022/09/17 05:11:42;;;;;;;;;;;;;;;8.60;92.85;96220.25;5075545;28;20007;-78
2022/09/17 05:14:08;;;;;;;;;;;;;;;8.59;92.80;96224.69;5075122;28;19994;-78
2022/09/17 05:16:34;;;;;;;;;;;;;;;8.58;92.19;96224.88;5074948;28;20027;-78
2022/09/17 05:19:00;;;;;;;;;;;;;;;8.56;92.08;96230.31;5075221;28;20048;-78
2022/09/17 05:21:26;;;;;;;;;;;;;;;8.55;92.32;96223.50;5074621;28;20331;-78
2022/09/17 05:23:52;;;;;;;;;;;;;;;8.55;92.12;96220.88;5074691;28;19960;-78
2022/09/17 05:26:18;;;;;;;;;;;;;;;8.54;91.88;96232.34;5074703;28;20410;-78
2022/09/17 05:28:44;;;;;;;;;;;;;;;8.52;91.74;96234.34;5074691;28;19963;-78
2022/09/17 05:31:09;;;;;;;;;;;;;;;8.51;91.85;96235.38;5074848;28;19964;-78
2022/09/17 05:33:35;;;;;;;;;;;;;;;8.50;92.35;96242.44;5075084;28;19954;-78
2022/09/17 05:36:01;;;;;;;;;;;;;;;8.50;93.28;96260.72;5074703;28;20434;-78
2022/09/17 05:38:27;;;;;;;;;;;;;;;8.49;93.19;96245.25;5074597;28;20018;-78
2022/09/17 05:40:53;;;;;;;;;;;;;;;8.49;93.24;96250.47;5074902;28;19962;-78
2022/09/17 05:43:19;;;;;;;;;;;;;;;8.49;93.30;96247.84;5074436;28;19961;-78
2022/09/17 05:45:45;;;;;;;;;;;;;;;8.52;93.21;96245.63;5074680;28;20061;-78
2022/09/17 05:48:12;;;;;;;;;;;;;;;8.57;93.16;96249.41;5074519;28;19987;-78
2022/09/17 05:50:38;;;;;;;;;;;;;;;8.60;93.34;96255.03;5074250;28;19959;-78
2022/09/17 05:53:06;;;;;;;;;;;;;;;8.72;93.08;96247.31;5074197;28;19961;-78
2022/09/17 05:55:32;;;;;;;;;;;;;;;8.83;93.05;96253.69;5074521;28;19949;-78
2022/09/17 05:57:59;;;;;;;;;;;;;;;9.02;92.50;96255.34;5074704;28;19962;-78
2022/09/17 06:00:24;;;;;;;;;;;;;;;9.20;91.79;96252.00;5074207;28;19964;-78
2022/09/17 06:02:59;;;;;;;;;;;;;;;9.36;90.43;96261.13;5074067;28;20015;-78
2022/09/17 06:05:25;;;;;;;;;;;;;;;9.70;90.04;96261.63;5039990;28;20463;-79
2022/09/17 06:07:51;;;;;;;;;;;;;;;10.26;89.36;96262.44;5074045;28;19958;-78
2022/09/17 06:10:17;;;;;;;;;;;;;;;10.76;87.26;96257.78;5074240;28;19954;-78
2022/09/17 06:12:43;;;;;;;;;;;;;;;10.97;84.98;96248.59;5074640;28;20018;-79
2022/09/17 06:15:13;;;;;;;;;;;;;;;11.32;84.20;96250.50;5056261;28;19962;-78
2022/09/17 06:17:39;;;;;;;;;;;;;;;11.69;82.08;96234.50;5073393;28;19978;-78
2022/09/17 06:20:05;;;;;;;;;;;;;;;11.94;79.83;96225.59;5074226;28;19977;-78
2022/09/17 06:22:31;;;;;;;;;;;;;;;12.07;78.90;96227.16;5074078;28;20041;-78
2022/09/17 06:24:59;;;;;;;;;;;;;;;12.01;78.54;96231.53;5073667;28;19976;-78
2022/09/17 06:27:32;;;;;;;;;;;;;;;11.75;80.28;96243.28;5073732;28;20327;-79
2022/09/17 06:29:58;;;;;;;;;;;;;;;11.41;81.15;96245.69;5074025;28;19957;-78
2022/09/17 06:32:24;;;;;;;;;;;;;;;11.08;83.49;96270.63;5074340;28;19957;-78
2022/09/17 06:34:50;;;;;;;;;;;;;;;10.82;84.70;96277.09;5073059;28;19962;-78
2022/09/17 06:37:16;;;;;;;;;;;;;;;10.54;84.76;96293.38;5073831;28;20006;-79
2022/09/17 06:39:42;;;;;;;;;;;;;;;10.30;86.71;96297.72;5056210;28;19993;-79
2022/09/17 06:42:08;;;;;;;;;;;;;;;10.12;86.11;96295.84;5073522;28;20432;-78
2022/09/17 06:44:34;;;;;;;;;;;;;;;9.98;87.23;96307.50;5055465;28;19955;-78
2022/09/17 06:47:00;;;;;;;;;;;;;;;9.84;88.66;96301.59;5074265;28;19962;-78
2022/09/17 06:49:26;;;;;;;;;;;;;;;9.64;86.77;96299.97;5073440;28;19954;-78
2022/09/17 06:51:51;;;;;;;;;;;;;;;9.48;89.07;96303.91;5073261;28;20445;-78
2022/09/17 06:54:17;;;;;;;;;;;;;;;9.33;88.47;96306.84;5073814;28;19958;-79
2022/09/17 06:56:44;;;;;;;;;;;;;;;9.20;87.87;96303.53;5073559;28;19961;-78
2022/09/17 06:59:10;;;;;;;;;;;;;;;9.11;88.48;96298.56;5073687;28;20395;-79
2022/09/17 07:01:36;;;;;;;;;;;;;;;9.09;89.27;96303.22;5074148;28;19976;-79
2022/09/17 07:04:02;;;;;;;;;;;;;;;9.09;90.37;96305.00;5073465;28;20506;-79
2022/09/17 07:06:28;;;;;;;;;;;;;;;9.12;92.25;96307.22;5055846;28;19970;-78
2022/09/17 07:08:54;;;;;;;;;;;;;;;9.13;90.37;96307.00;5073570;28;19995;-78
2022/09/17 07:11:20;;;;;;;;;;;;;;;9.15;93.54;96312.00;5073538;28;20422;-78
2022/09/17 07:13:45;;;;;;;;;;;;;;;9.16;92.22;96318.06;5073411;28;19959;-78
2022/09/17 07:16:11;;;;;;;;;;;;;;;9.15;93.86;96322.47;5073291;28;20036;-77
2022/09/17 07:18:38;;;;;;;;;;;;;;;9.10;92.38;96314.47;5074072;28;19998;-77
2022/09/17 07:21:05;;;;;;;;;;;;;;;9.09;91.24;96323.31;5073289;28;19960;-77
2022/09/17 07:23:32;;;;;;;;;;;;;;;9.08;93.94;96324.34;5073122;28;19958;-77
2022/09/17 07:25:59;;;;;;;;;;;;;;;9.05;91.71;96324.75;5073217;28;19963;-77
2022/09/17 07:28:26;;;;;;;;;;;;;;;9.02;94.15;96330.41;5073867;28;19962;-77
2022/09/17 07:30:52;;;;;;;;;;;;;;;9.02;94.57;96325.19;5073394;28;19954;-77
2022/09/17 07:33:22;;;;;;;;;;;;;;;9.03;93.91;96321.53;5073311;28;20437;-77
2022/09/17 07:35:56;;;;;;;;;;;;;;;8.99;92.38;96322.97;5072973;28;19960;-77
2022/09/17 07:38:23;;;;;;;;;;;;;;;8.98;93.53;96330.03;5073281;28;19955;-77
2022/09/17 07:41:11;;;;;;;;;;;;;;;9.01;94.97;96332.25;5073146;28;19955;-76
2022/09/17 07:43:37;;;;;;;;;;;;;;;9.07;95.22;96331.41;5072525;28;19957;-77
2022/09/17 07:46:04;;;;;;;;;;;;;;;9.11;95.92;96339.59;5075613;28;20317;-76
2022/09/17 07:48:30;;;;;;;;;;;;;;;9.14;94.52;96334.75;5076766;28;19954;-77
2022/09/17 07:50:56;;;;;;;;;;;;;;;9.14;94.36;96342.59;5076891;28;19964;-77
2022/09/17 07:53:22;;;;;;;;;;;;;;;9.14;96.35;96345.22;5076915;28;20310;-77
2022/09/17 07:55:52;;;;;;;;;;;;;;;9.16;94.53;96350.25;5058717;28;19992;-77
2022/09/17 07:58:18;;;;;;;;;;;;;;;9.18;95.08;96350.06;5076921;28;20360;-76
2022/09/17 08:00:45;;;;;;;;;;;;;;;9.17;94.55;96345.81;5058786;28;19966;-77
2022/09/17 08:03:10;;;;;;;;;;;;;;;9.19;94.11;96336.75;5076391;28;19959;-77
2022/09/17 08:05:37;;;;;;;;;;;;;;;9.27;95.81;96354.81;5076409;28;19959;-77
2022/09/17 08:08:03;;;;;;;;;;;;;;;9.36;96.72;96350.09;5076553;28;19958;-77
2022/09/17 08:10:28;;;;;;;;;;;;;;;9.43;92.67;96352.66;5076603;28;20053;-77
2022/09/17 08:12:56;;;;;;;;;;;;;;;9.46;93.08;96360.13;5076380;28;19956;-77
2022/09/17 08:15:22;;;;;;;;;;;;;;;9.49;94.63;96359.69;5076405;28;19970;-77
2022/09/17 08:17:48;;;;;;;;;;;;;;;9.57;95.02;96363.84;5076487;28;19986;-77
2022/09/17 08:20:14;;;;;;;;;;;;;;;9.62;92.81;96356.19;5076041;28;19959;-77
2022/09/17 08:22:41;;;;;;;;;;;;;;;9.70;94.81;96358.50;5076158;28;19957;-77
2022/09/17 08:25:07;;;;;;;;;;;;;;;9.79;95.02;96367.72;5058253;28;20344;-77
2022/09/17 08:27:33;;;;;;;;;;;;;;;9.85;90.59;96353.75;5076269;28;19969;-77
2022/09/17 08:29:59;;;;;;;;;;;;;;;9.86;90.57;96352.72;5058129;28;19960;-77
2022/09/17 08:32:25;;;;;;;;;;;;;;;9.89;94.91;96356.72;5075837;28;20004;-77
2022/09/17 08:34:52;;;;;;;;;;;;;;;9.92;91.46;96351.88;5075961;28;20338;-77
2022/09/17 08:37:19;;;;;;;;;;;;;;;9.86;88.08;96346.69;5075691;28;19960;-77
2022/09/17 08:39:45;;;;;;;;;;;;;;;9.72;89.18;96353.84;5075731;28;20326;-77
2022/09/17 08:42:34;;;;;;;;;;;;;;;9.65;90.50;96367.00;5057875;28;19960;-78
2022/09/17 08:45:02;;;;;;;;;;;;;;;9.62;91.71;96364.03;5065133;28;19968;-78
2022/09/17 08:47:32;;;;;;;;;;;;;;;9.61;91.10;96365.84;5076132;28;20310;-77
2022/09/17 08:50:03;;;;;;;;;;;;;;;9.66;91.98;96367.81;5075982;28;19952;-78
2022/09/17 08:52:48;;;;;;;;;;;;;;;9.77;90.60;96371.56;5075877;28;19949;-78
2022/09/17 08:55:20;;;;;;;;;;;;;;;9.88;89.76;96369.03;5075941;28;20397;-78
2022/09/17 08:57:51;;;;;;;;;;;;;;;10.12;91.30;96377.91;5057099;28;20390;-78
2022/09/17 09:00:21;;;;;;;;;;;;;;;10.23;89.05;96363.28;5075690;28;19976;-78
2022/09/17 09:02:56;;;;;;;;;;;;;;;10.24;90.14;96370.09;5075579;28;20024;-78
2022/09/17 09:05:28;;;;;;;;;;;;;;;10.30;88.94;96371.09;5075594;28;19991;-78
2022/09/17 09:07:56;;;;;;;;;;;;;;;10.40;88.05;96366.16;5065389;28;19947;-78
2022/09/17 09:10:24;;;;;;;;;;;;;;;10.53;89.21;96378.31;5075214;28;19948;-78
2022/09/17 09:12:51;;;;;;;;;;;;;;;10.65;87.90;96368.69;5075071;28;19978;-78
2022/09/17 09:15:30;;;;;;;;;;;;;;;10.79;88.02;96379.81;5075106;28;19956;-78
2022/09/17 09:18:00;;;;;;;;;;;;;;;10.83;87.10;96367.84;5054113;28;19979;-78
2022/09/17 09:20:42;;;;;;;;;;;;;;;10.83;87.24;96367.06;5055353;28;20034;-78
2022/09/17 09:23:15;;;;;;;;;;;;;;;10.84;87.50;96368.69;5055317;28;20422;-79
2022/09/17 09:25:49;;;;;;;;;;;;;;;10.81;82.58;96348.91;5055078;28;19968;-78
2022/09/17 09:28:17;;;;;;;;;;;;;;;10.77;83.58;96358.25;5042542;28;19957;-79
2022/09/17 09:31:02;;;;;;;;;;;;;;;10.80;83.54;96364.91;5055063;28;19955;-79
2022/09/17 09:33:30;;;;;;;;;;;;;;;10.84;82.44;96358.97;5055119;28;19951;-79
2022/09/17 09:35:56;;;;;;;;;;;;;;;10.90;84.86;96378.28;5054906;28;20413;-79
2022/09/17 09:38:36;;;;;;;;;;;;;;;10.90;81.75;96346.81;5054717;28;19960;-79
2022/09/17 09:41:16;;;;;;;;;;;;;;;10.82;81.65;96355.00;5047733;28;20415;-79
2022/09/17 09:43:56;;;;;;;;;;;;;;;10.81;84.27;96371.72;5054800;28;19957;-79
2022/09/17 09:46:49;;;;;;;;;;;;;;;10.83;80.98;96356.56;5054680;28;19972;-79
2022/09/17 09:49:14;;;;;;;;;;;;;;;10.85;81.12;96350.06;5052639;28;19955;-79
2022/09/17 09:51:52;;;;;;;;;;;;;;;10.85;83.93;96373.69;5055001;28;20461;-79
2022/09/17 09:54:37;;;;;;;;;;;;;;;10.86;83.66;96374.50;5054357;28;20423;-79
2022/09/17 09:57:07;;;;;;;;;;;;;;;10.85;83.40;96372.91;5054223;28;19951;-79
2022/09/17 09:59:36;;;;;;;;;;;;;;;10.87;80.00;96363.78;5053019;28;19954;-79
2022/09/17 10:02:03;;;;;;;;;;;;;;;10.94;81.31;96361.06;5054544;28;19957;-80
2022/09/17 10:04:31;;;;;;;;;;;;;;;11.05;81.79;96365.56;5054116;28;19955;-80
2022/09/17 10:07:02;;;;;;;;;;;;;;;11.23;83.68;96374.41;5054224;28;19975;-80
2022/09/17 10:09:31;;;;;;;;;;;;;;;11.33;81.83;96362.34;5054148;28;19951;-79
2022/09/17 10:12:01;;;;;;;;;;;;;;;11.37;78.83;96346.94;5053961;28;19956;-79
2022/09/17 10:14:28;;;;;;;;;;;;;;;11.48;76.99;96327.78;5054191;28;19954;-79
2022/09/17 10:17:13;;;;;;;;;;;;;;;11.56;79.73;96350.28;5059613;28;19993;-79
2022/09/17 10:19:40;;;;;;;;;;;;;;;11.65;77.96;96341.03;5074076;28;19963;-80
2022/09/17 10:22:24;;;;;;;;;;;;;;;11.81;79.06;96355.34;5073821;28;19966;-80
2022/09/17 10:24:52;;;;;;;;;;;;;;;12.00;77.26;96339.50;5074367;28;19962;-80
2022/09/17 10:27:19;;;;;;;;;;;;;;;12.05;74.42;96314.13;5064947;28;20350;-79
2022/09/17 10:29:50;;;;;;;;;;;;;;;11.99;75.19;96322.94;5073669;28;19949;-79
2022/09/17 10:32:20;;;;;;;;;;;;;;;11.93;76.12;96334.38;5055929;28;19958;-79
2022/09/17 10:35:03;;;;;;;;;;;;;;;11.95;74.40;96322.59;5073928;28;19951;-79
2022/09/17 10:37:34;;;;;;;;;;;;;;;12.15;76.68;96342.47;5061169;28;19951;-79
2022/09/17 10:40:00;;;;;;;;;;;;;;;12.46;76.25;96343.13;5073568;28;19976;-79
2022/09/17 10:42:26;;;;;;;;;;;;;;;12.75;73.64;96310.53;5056302;28;19973;-79
2022/09/17 10:45:01;;;;;;;;;;;;;;;13.03;72.94;96292.34;5073959;28;19956;-79
2022/09/17 10:47:35;;;;;;;;;;;;;;;13.30;70.14;96282.81;5056042;28;19980;-79
2022/09/17 10:50:02;;;;;;;;;;;;;;;13.64;75.04;96324.19;5073555;28;20356;-79
2022/09/17 10:52:31;;;;;;;;;;;;;;;13.77;67.81;96258.78;5074337;28;19955;-79
2022/09/17 10:55:01;;;;;;;;;;;;;;;13.73;68.54;96267.41;5073420;28;19956;-79
2022/09/17 10:57:30;;;;;;;;;;;;;;;13.50;68.04;96258.66;5056007;28;19962;-79
2022/09/17 11:00:17;;;;;;;;;;;;;;;13.45;67.27;96255.94;5073358;28;19950;-79
2022/09/17 11:02:55;;;;;;;;;;;;;;;13.65;66.39;96257.25;5060959;28;19954;-79
2022/09/17 11:05:24;;;;;;;;;;;;;;;13.78;66.08;96251.66;5073640;28;19956;-79
2022/09/17 11:08:12;;;;;;;;;;;;;;;13.76;67.10;96273.00;5073732;28;20433;-79
2022/09/17 11:10:44;;;;;;;;;;;;;;;13.76;63.62;96224.75;5063451;28;19960;-79
2022/09/17 11:13:18;;;;;;;;;;;;;;;13.68;64.45;96240.97;5073534;28;19947;-79
2022/09/17 11:15:57;;;;;;;;;;;;;;;13.55;64.99;96255.28;5073669;28;19956;-79
2022/09/17 11:18:32;;;;;;;;;;;;;;;13.38;67.16;96271.91;5073594;28;19984;-79
2022/09/17 11:21:01;;;;;;;;;;;;;;;13.25;65.98;96250.31;5075813;28;20298;-79
2022/09/17 11:23:30;;;;;;;;;;;;;;;13.20;67.33;96256.28;5076888;28;19960;-79
2022/09/17 11:25:57;;;;;;;;;;;;;;;13.15;67.53;96250.97;5077119;28;19970;-79
2022/09/17 11:28:23;;;;;;;;;;;;;;;13.14;68.58;96265.94;5077059;28;19946;-79
2022/09/17 11:30:51;;;;;;;;;;;;;;;13.13;64.88;96232.75;5077106;28;19961;-79
2022/09/17 11:33:17;;;;;;;;;;;;;;;13.23;67.56;96255.84;5076909;28;19949;-79
2022/09/17 11:36:01;;;;;;;;;;;;;;;13.27;66.69;96248.22;5077356;28;20329;-79
2022/09/17 11:38:46;;;;;;;;;;;;;;;13.23;63.56;96216.34;5067382;28;19962;-79
2022/09/17 11:41:15;;;;;;;;;;;;;;;13.32;61.35;96200.97;5064310;28;19955;-78
2022/09/17 11:43:47;;;;;;;;;;;;;;;13.48;61.86;96199.31;5077043;28;19957;-79
2022/09/17 11:46:24;;;;;;;;;;;;;;;13.62;64.14;96220.88;5075832;28;19977;-78
2022/09/17 11:49:02;;;;;;;;;;;;;;;13.92;61.97;96194.09;5076813;28;19965;-79
2022/09/17 11:51:40;;;;;;;;;;;;;;;14.21;63.88;96218.44;5065116;28;19958;-79
2022/09/17 11:54:19;;;;;;;;;;;;;;;14.24;61.63;96204.78;5042966;28;19980;-79
2022/09/17 11:56:47;;;;;;;;;;;;;;;14.24;64.06;96235.63;5076475;28;19963;-78
2022/09/17 11:59:18;;;;;;;;;;;;;;;14.36;59.53;96194.91;5076315;28;19965;-79
2022/09/17 12:01:50;;;;;;;;;;;;;;;14.45;61.40;96199.72;5076705;28;20409;-79
2022/09/17 12:04:34;;;;;;;;;;;;;;;14.38;61.50;96207.81;5077127;28;19949;-79
2022/09/17 12:07:03;;;;;;;;;;;;;;;14.30;58.57;96177.44;5063119;28;19963;-79
2022/09/17 12:09:31;;;;;;;;;;;;;;;14.17;58.88;96189.16;5076225;28;20353;-78
2022/09/17 12:12:13;;;;;;;;;;;;;;;14.10;57.81;96185.91;5076214;28;19959;-79
2022/09/17 12:14:46;;;;;;;;;;;;;;;13.93;59.25;96198.34;5076280;28;19955;-79
2022/09/17 12:17:15;;;;;;;;;;;;;;;13.84;59.42;96218.25;5075950;28;19986;-79
2022/09/17 12:19:44;;;;;;;;;;;;;;;13.81;62.22;96227.44;5076260;28;20462;-79
2022/09/17 12:22:30;;;;;;;;;;;;;;;13.84;60.67;96205.88;5076060;28;20351;-79
2022/09/17 12:24:56;;;;;;;;;;;;;;;13.98;57.03;96172.03;5075509;28;19952;-79
2022/09/17 12:27:44;;;;;;;;;;;;;;;14.10;60.11;96198.28;5076041;28;20351;-79
2022/09/17 12:30:12;;;;;;;;;;;;;;;14.11;57.67;96184.88;5064298;28;20408;-79
2022/09/17 12:32:48;;;;;;;;;;;;;;;14.07;60.49;96209.31;5074988;28;19954;-79
2022/09/17 12:35:13;;;;;;;;;;;;;;;14.04;61.03;96217.72;5064515;28;20344;-79
2022/09/17 12:37:42;;;;;;;;;;;;;;;13.99;59.82;96215.81;5075855;28;19953;-79
2022/09/17 12:40:20;;;;;;;;;;;;;;;13.92;57.34;96186.19;5076442;28;20018;-79
2022/09/17 12:43:01;;;;;;;;;;;;;;;13.92;57.79;96176.47;5075748;28;19950;-79
2022/09/17 12:45:27;;;;;;;;;;;;;;;14.07;59.59;96196.94;5076069;28;19964;-79
2022/09/17 12:48:02;;;;;;;;;;;;;;;14.14;54.35;96152.72;5075435;28;19970;-79
2022/09/17 12:50:28;;;;;;;;;;;;;;;14.18;61.08;96221.59;5075947;28;19956;-79
2022/09/17 12:53:07;;;;;;;;;;;;;;;14.12;58.38;96201.47;5075509;28;20439;-79
2022/09/17 12:55:35;;;;;;;;;;;;;;;14.01;57.75;96193.44;5075811;28;19957;-79
2022/09/17 12:58:01;;;;;;;;;;;;;;;13.86;61.66;96240.72;5075415;28;19975;-79
2022/09/17 13:00:27;;;;;;;;;;;;;;;13.59;60.75;96236.13;5075143;28;19947;-79
2022/09/17 13:03:12;;;;;;;;;;;;;;;13.32;64.52;96293.13;5075453;28;19951;-79
2022/09/17 13:05:50;;;;;;;;;;;;;;;12.89;68.33;96333.94;5075122;28;20321;-78
2022/09/17 13:08:18;;;;;;;;;;;;;;;12.49;71.33;96338.16;5074595;28;19952;-78